sensor_id;sensor_type;location;lat;lon;timestamp;temperature;humidity
76239;SHT30;65043;48.392;-4.472;2023-02-18T00:01:14;13.11;78.85
76239;SHT30;65043;48.392;-4.472;2023-02-18T00:03:40;13.11;78.76
76239;SHT30;65043;48.392;-4.472;2023-02-18T00:06:21;13.08;78.94
76239;SHT30;65043;48.392;-4.472;2023-02-18T00:08:47;13.08;78.96
76239;SHT30;65043;48.392;-4.472;2023-02-18T00:11:13;13.06;79.01
76239;SHT30;65043;48.392;-4.472;2023-02-18T00:13:39;13.08;79.02
76239;SHT30;65043;48.392;-4.472;2023-02-18T00:16:07;13.09;78.92
76239;SHT30;65043;48.392;-4.472;2023-02-18T00:18:33;13.03;79.06
76239;SHT30;65043;48.392;-4.472;2023-02-18T00:20:58;13.03;79.29
76239;SHT30;65043;48.392;-4.472;2023-02-18T00:23:24;13.03;79.29
76239;SHT30;65043;48.392;-4.472;2023-02-18T00:26:01;13.02;79.24
76239;SHT30;65043;48.392;-4.472;2023-02-18T00:28:26;13.01;79.33
76239;SHT30;65043;48.392;-4.472;2023-02-18T00:30:52;13.01;79.44
76239;SHT30;65043;48.392;-4.472;2023-02-18T00:33:17;13.01;79.49
76239;SHT30;65043;48.392;-4.472;2023-02-18T00:35:42;12.98;79.62
76239;SHT30;65043;48.392;-4.472;2023-02-18T00:38:08;12.99;79.63
76239;SHT30;65043;48.392;-4.472;2023-02-18T00:40:37;12.98;79.52
76239;SHT30;65043;48.392;-4.472;2023-02-18T00:43:02;12.98;79.57
76239;SHT30;65043;48.392;-4.472;2023-02-18T00:45:28;12.98;79.53
76239;SHT30;65043;48.392;-4.472;2023-02-18T00:47:53;12.96;79.55
76239;SHT30;65043;48.392;-4.472;2023-02-18T00:50:18;12.98;79.57
76239;SHT30;65043;48.392;-4.472;2023-02-18T00:52:44;12.96;79.53
76239;SHT30;65043;48.392;-4.472;2023-02-18T00:55:09;12.98;79.53
76239;SHT30;65043;48.392;-4.472;2023-02-18T00:57:35;12.95;79.56
76239;SHT30;65043;48.392;-4.472;2023-02-18T01:00:00;12.95;79.60
76239;SHT30;65043;48.392;-4.472;2023-02-18T01:02:26;12.93;79.72
76239;SHT30;65043;48.392;-4.472;2023-02-18T01:04:51;12.96;79.63
76239;SHT30;65043;48.392;-4.472;2023-02-18T01:07:16;12.99;79.58
76239;SHT30;65043;48.392;-4.472;2023-02-18T01:09:42;12.98;79.60
76239;SHT30;65043;48.392;-4.472;2023-02-18T01:12:07;12.98;79.63
76239;SHT30;65043;48.392;-4.472;2023-02-18T01:14:33;12.99;79.76
76239;SHT30;65043;48.392;-4.472;2023-02-18T01:16:58;13.02;79.54
76239;SHT30;65043;48.392;-4.472;2023-02-18T01:19:24;13.01;79.57
76239;SHT30;65043;48.392;-4.472;2023-02-18T01:21:49;12.99;79.59
76239;SHT30;65043;48.392;-4.472;2023-02-18T01:24:14;13.01;79.49
76239;SHT30;65043;48.392;-4.472;2023-02-18T01:26:40;13.01;79.59
76239;SHT30;65043;48.392;-4.472;2023-02-18T01:29:05;12.99;79.50
76239;SHT30;65043;48.392;-4.472;2023-02-18T01:31:30;12.99;79.53
76239;SHT30;65043;48.392;-4.472;2023-02-18T01:33:56;12.99;79.59
76239;SHT30;65043;48.392;-4.472;2023-02-18T01:36:21;12.99;79.64
76239;SHT30;65043;48.392;-4.472;2023-02-18T01:38:47;12.96;79.68
76239;SHT30;65043;48.392;-4.472;2023-02-18T01:41:12;12.93;79.71
76239;SHT30;65043;48.392;-4.472;2023-02-18T01:43:38;12.93;79.76
76239;SHT30;65043;48.392;-4.472;2023-02-18T01:46:22;12.93;79.78
76239;SHT30;65043;48.392;-4.472;2023-02-18T01:48:54;12.95;79.67
76239;SHT30;65043;48.392;-4.472;2023-02-18T01:51:26;12.95;79.73
76239;SHT30;65043;48.392;-4.472;2023-02-18T01:56:23;12.92;79.84
76239;SHT30;65043;48.392;-4.472;2023-02-18T01:58:50;12.93;79.84
76239;SHT30;65043;48.392;-4.472;2023-02-18T02:01:16;12.91;79.88
76239;SHT30;65043;48.392;-4.472;2023-02-18T02:03:41;12.92;79.93
76239;SHT30;65043;48.392;-4.472;2023-02-18T02:06:16;12.93;79.82
76239;SHT30;65043;48.392;-4.472;2023-02-18T02:08:43;12.95;79.83
76239;SHT30;65043;48.392;-4.472;2023-02-18T02:14:10;12.96;79.83
76239;SHT30;65043;48.392;-4.472;2023-02-18T02:16:41;12.95;79.89
76239;SHT30;65043;48.392;-4.472;2023-02-18T02:31:36;12.96;79.98
76239;SHT30;65043;48.392;-4.472;2023-02-18T02:42:39;12.95;79.88
76239;SHT30;65043;48.392;-4.472;2023-02-18T02:47:48;12.96;79.94
76239;SHT30;65043;48.392;-4.472;2023-02-18T02:50:27;12.98;79.79
76239;SHT30;65043;48.392;-4.472;2023-02-18T02:53:00;12.96;79.72
76239;SHT30;65043;48.392;-4.472;2023-02-18T02:55:26;12.95;79.77
76239;SHT30;65043;48.392;-4.472;2023-02-18T02:57:53;12.96;79.85
76239;SHT30;65043;48.392;-4.472;2023-02-18T03:00:32;12.95;79.89
76239;SHT30;65043;48.392;-4.472;2023-02-18T03:05:48;12.95;79.86
76239;SHT30;65043;48.392;-4.472;2023-02-18T03:11:07;12.93;79.82
76239;SHT30;65043;48.392;-4.472;2023-02-18T03:16:46;12.98;79.76
76239;SHT30;65043;48.392;-4.472;2023-02-18T03:19:32;12.93;79.74
76239;SHT30;65043;48.392;-4.472;2023-02-18T03:22:04;12.95;79.81
76239;SHT30;65043;48.392;-4.472;2023-02-18T03:24:40;12.95;79.82
76239;SHT30;65043;48.392;-4.472;2023-02-18T03:27:14;12.95;79.87
76239;SHT30;65043;48.392;-4.472;2023-02-18T03:29:42;12.98;79.65
76239;SHT30;65043;48.392;-4.472;2023-02-18T03:32:12;12.95;79.80
76239;SHT30;65043;48.392;-4.472;2023-02-18T03:34:42;12.99;79.67
76239;SHT30;65043;48.392;-4.472;2023-02-18T03:37:08;13.01;79.58
76239;SHT30;65043;48.392;-4.472;2023-02-18T03:39:35;12.99;79.62
76239;SHT30;65043;48.392;-4.472;2023-02-18T03:42:02;12.99;79.64
76239;SHT30;65043;48.392;-4.472;2023-02-18T03:44:29;13.01;79.59
76239;SHT30;65043;48.392;-4.472;2023-02-18T03:46:55;13.02;79.70
76239;SHT30;65043;48.392;-4.472;2023-02-18T03:49:20;13.02;79.55
76239;SHT30;65043;48.392;-4.472;2023-02-18T03:51:46;13.05;79.38
76239;SHT30;65043;48.392;-4.472;2023-02-18T03:54:11;13.05;79.47
76239;SHT30;65043;48.392;-4.472;2023-02-18T03:56:39;12.99;79.47
76239;SHT30;65043;48.392;-4.472;2023-02-18T03:59:05;13.02;79.49
76239;SHT30;65043;48.392;-4.472;2023-02-18T04:01:31;12.99;79.53
76239;SHT30;65043;48.392;-4.472;2023-02-18T04:03:56;13.02;79.56
76239;SHT30;65043;48.392;-4.472;2023-02-18T04:06:22;13.02;79.62
76239;SHT30;65043;48.392;-4.472;2023-02-18T04:08:48;13.01;79.67
76239;SHT30;65043;48.392;-4.472;2023-02-18T04:11:13;13.02;79.51
76239;SHT30;65043;48.392;-4.472;2023-02-18T04:13:39;13.02;79.53
76239;SHT30;65043;48.392;-4.472;2023-02-18T04:16:05;12.99;79.58
76239;SHT30;65043;48.392;-4.472;2023-02-18T04:18:30;12.98;79.72
76239;SHT30;65043;48.392;-4.472;2023-02-18T04:20:56;12.96;79.66
76239;SHT30;65043;48.392;-4.472;2023-02-18T04:23:21;12.98;79.77
76239;SHT30;65043;48.392;-4.472;2023-02-18T04:25:48;12.95;79.67
76239;SHT30;65043;48.392;-4.472;2023-02-18T04:28:14;12.99;79.77
76239;SHT30;65043;48.392;-4.472;2023-02-18T04:30:41;12.96;79.79
76239;SHT30;65043;48.392;-4.472;2023-02-18T04:33:07;12.98;79.72
76239;SHT30;65043;48.392;-4.472;2023-02-18T04:35:32;12.99;79.66
76239;SHT30;65043;48.392;-4.472;2023-02-18T04:37:58;13.01;79.68
76239;SHT30;65043;48.392;-4.472;2023-02-18T04:40:23;12.98;79.77
76239;SHT30;65043;48.392;-4.472;2023-02-18T04:42:50;12.96;79.85
76239;SHT30;65043;48.392;-4.472;2023-02-18T04:45:16;12.96;79.81
76239;SHT30;65043;48.392;-4.472;2023-02-18T04:47:41;12.99;79.74
76239;SHT30;65043;48.392;-4.472;2023-02-18T04:50:07;12.99;79.76
76239;SHT30;65043;48.392;-4.472;2023-02-18T04:52:33;12.98;79.79
76239;SHT30;65043;48.392;-4.472;2023-02-18T04:54:58;12.99;79.77
76239;SHT30;65043;48.392;-4.472;2023-02-18T04:57:23;13.01;79.58
76239;SHT30;65043;48.392;-4.472;2023-02-18T04:59:49;13.01;79.64
76239;SHT30;65043;48.392;-4.472;2023-02-18T05:02:14;12.99;79.62
76239;SHT30;65043;48.392;-4.472;2023-02-18T05:04:40;12.96;79.52
76239;SHT30;65043;48.392;-4.472;2023-02-18T05:07:05;12.98;79.53
76239;SHT30;65043;48.392;-4.472;2023-02-18T05:09:30;12.98;79.36
76239;SHT30;65043;48.392;-4.472;2023-02-18T05:11:56;12.99;79.32
76239;SHT30;65043;48.392;-4.472;2023-02-18T05:14:21;12.99;79.23
76239;SHT30;65043;48.392;-4.472;2023-02-18T05:16:46;13.01;79.16
76239;SHT30;65043;48.392;-4.472;2023-02-18T05:19:14;13.05;79.00
76239;SHT30;65043;48.392;-4.472;2023-02-18T05:21:40;13.03;78.96
76239;SHT30;65043;48.392;-4.472;2023-02-18T05:24:06;13.03;78.85
76239;SHT30;65043;48.392;-4.472;2023-02-18T05:26:33;13.05;78.73
76239;SHT30;65043;48.392;-4.472;2023-02-18T05:28:58;13.06;78.68
76239;SHT30;65043;48.392;-4.472;2023-02-18T05:31:24;13.02;78.74
76239;SHT30;65043;48.392;-4.472;2023-02-18T05:33:49;13.03;78.70
76239;SHT30;65043;48.392;-4.472;2023-02-18T05:36:14;13.03;78.73
76239;SHT30;65043;48.392;-4.472;2023-02-18T05:38:40;13.02;78.76
76239;SHT30;65043;48.392;-4.472;2023-02-18T05:41:05;13.02;78.53
76239;SHT30;65043;48.392;-4.472;2023-02-18T05:43:31;13.02;78.72
76239;SHT30;65043;48.392;-4.472;2023-02-18T05:46:16;13.02;78.61
76239;SHT30;65043;48.392;-4.472;2023-02-18T05:48:41;13.02;78.68
76239;SHT30;65043;48.392;-4.472;2023-02-18T05:51:07;13.01;78.65
76239;SHT30;65043;48.392;-4.472;2023-02-18T05:53:32;13.01;78.49
76239;SHT30;65043;48.392;-4.472;2023-02-18T05:55:57;13.02;78.47
76239;SHT30;65043;48.392;-4.472;2023-02-18T05:58:23;13.01;78.44
76239;SHT30;65043;48.392;-4.472;2023-02-18T06:00:48;12.99;78.49
76239;SHT30;65043;48.392;-4.472;2023-02-18T06:03:13;12.98;78.50
76239;SHT30;65043;48.392;-4.472;2023-02-18T06:05:39;13.01;78.55
76239;SHT30;65043;48.392;-4.472;2023-02-18T06:08:04;13.01;78.34
76239;SHT30;65043;48.392;-4.472;2023-02-18T06:10:29;12.98;78.44
76239;SHT30;65043;48.392;-4.472;2023-02-18T06:12:55;13.02;78.30
76239;SHT30;65043;48.392;-4.472;2023-02-18T06:15:20;12.99;78.22
76239;SHT30;65043;48.392;-4.472;2023-02-18T06:17:46;13.02;78.29
76239;SHT30;65043;48.392;-4.472;2023-02-18T06:20:11;13.02;78.27
76239;SHT30;65043;48.392;-4.472;2023-02-18T06:22:37;13.01;78.15
76239;SHT30;65043;48.392;-4.472;2023-02-18T06:25:02;13.01;77.52
76239;SHT30;65043;48.392;-4.472;2023-02-18T06:27:28;12.98;77.64
76239;SHT30;65043;48.392;-4.472;2023-02-18T06:29:53;12.99;77.64
76239;SHT30;65043;48.392;-4.472;2023-02-18T06:32:18;12.99;77.37
76239;SHT30;65043;48.392;-4.472;2023-02-18T06:34:44;12.96;77.80
76239;SHT30;65043;48.392;-4.472;2023-02-18T06:37:09;12.98;78.00
76239;SHT30;65043;48.392;-4.472;2023-02-18T06:39:34;12.93;77.86
76239;SHT30;65043;48.392;-4.472;2023-02-18T06:42:00;12.93;77.85
76239;SHT30;65043;48.392;-4.472;2023-02-18T06:44:25;12.95;77.75
76239;SHT30;65043;48.392;-4.472;2023-02-18T06:46:50;12.95;78.10
76239;SHT30;65043;48.392;-4.472;2023-02-18T06:49:16;12.95;77.87
76239;SHT30;65043;48.392;-4.472;2023-02-18T06:51:41;12.92;77.94
76239;SHT30;65043;48.392;-4.472;2023-02-18T06:54:06;12.95;77.84
76239;SHT30;65043;48.392;-4.472;2023-02-18T06:56:32;12.92;77.80
76239;SHT30;65043;48.392;-4.472;2023-02-18T06:58:57;12.89;77.44
76239;SHT30;65043;48.392;-4.472;2023-02-18T07:01:23;12.87;78.09
76239;SHT30;65043;48.392;-4.472;2023-02-18T07:03:48;12.87;78.19
76239;SHT30;65043;48.392;-4.472;2023-02-18T07:06:13;12.87;78.21
76239;SHT30;65043;48.392;-4.472;2023-02-18T07:08:39;12.87;78.18
76239;SHT30;65043;48.392;-4.472;2023-02-18T07:11:04;12.87;78.02
76239;SHT30;65043;48.392;-4.472;2023-02-18T07:13:30;12.84;78.21
76239;SHT30;65043;48.392;-4.472;2023-02-18T07:15:56;12.87;78.09
76239;SHT30;65043;48.392;-4.472;2023-02-18T07:18:22;12.87;77.72
76239;SHT30;65043;48.392;-4.472;2023-02-18T07:20:47;12.84;77.63
76239;SHT30;65043;48.392;-4.472;2023-02-18T07:23:12;12.84;78.10
76239;SHT30;65043;48.392;-4.472;2023-02-18T07:25:38;12.82;78.24
76239;SHT30;65043;48.392;-4.472;2023-02-18T07:28:03;12.85;78.14
76239;SHT30;65043;48.392;-4.472;2023-02-18T07:30:29;12.81;78.18
76239;SHT30;65043;48.392;-4.472;2023-02-18T07:32:54;12.81;78.09
76239;SHT30;65043;48.392;-4.472;2023-02-18T07:35:20;12.80;78.01
76239;SHT30;65043;48.392;-4.472;2023-02-18T07:37:49;12.80;78.32
76239;SHT30;65043;48.392;-4.472;2023-02-18T07:40:18;12.80;78.39
76239;SHT30;65043;48.392;-4.472;2023-02-18T07:42:43;12.82;78.40
76239;SHT30;65043;48.392;-4.472;2023-02-18T07:45:09;12.81;78.54
76239;SHT30;65043;48.392;-4.472;2023-02-18T07:47:35;12.81;78.57
76239;SHT30;65043;48.392;-4.472;2023-02-18T07:50:00;12.81;78.51
76239;SHT30;65043;48.392;-4.472;2023-02-18T07:52:26;12.78;78.30
76239;SHT30;65043;48.392;-4.472;2023-02-18T07:54:51;12.74;78.34
76239;SHT30;65043;48.392;-4.472;2023-02-18T07:57:17;12.72;78.37
76239;SHT30;65043;48.392;-4.472;2023-02-18T07:59:42;12.71;78.53
76239;SHT30;65043;48.392;-4.472;2023-02-18T08:02:16;12.71;78.70
76239;SHT30;65043;48.392;-4.472;2023-02-18T08:04:42;12.72;78.65
76239;SHT30;65043;48.392;-4.472;2023-02-18T08:07:12;12.69;78.64
76239;SHT30;65043;48.392;-4.472;2023-02-18T08:09:38;12.71;78.73
76239;SHT30;65043;48.392;-4.472;2023-02-18T08:12:04;12.72;78.76
76239;SHT30;65043;48.392;-4.472;2023-02-18T08:14:29;12.69;78.80
76239;SHT30;65043;48.392;-4.472;2023-02-18T08:16:54;12.72;78.61
76239;SHT30;65043;48.392;-4.472;2023-02-18T08:19:20;12.74;78.54
76239;SHT30;65043;48.392;-4.472;2023-02-18T08:21:45;12.74;78.63
76239;SHT30;65043;48.392;-4.472;2023-02-18T08:24:11;12.75;78.70
76239;SHT30;65043;48.392;-4.472;2023-02-18T08:26:36;12.78;78.56
76239;SHT30;65043;48.392;-4.472;2023-02-18T08:29:02;12.80;78.78
76239;SHT30;65043;48.392;-4.472;2023-02-18T08:31:28;12.81;78.64
76239;SHT30;65043;48.392;-4.472;2023-02-18T08:33:55;12.81;78.74
76239;SHT30;65043;48.392;-4.472;2023-02-18T08:36:21;12.80;78.75
76239;SHT30;65043;48.392;-4.472;2023-02-18T08:38:47;12.82;78.77
76239;SHT30;65043;48.392;-4.472;2023-02-18T08:41:13;12.81;78.76
76239;SHT30;65043;48.392;-4.472;2023-02-18T08:43:39;12.85;78.68
76239;SHT30;65043;48.392;-4.472;2023-02-18T08:46:05;12.87;78.59
76239;SHT30;65043;48.392;-4.472;2023-02-18T08:48:30;12.88;78.55
76239;SHT30;65043;48.392;-4.472;2023-02-18T08:50:56;12.91;78.44
76239;SHT30;65043;48.392;-4.472;2023-02-18T08:53:22;12.93;78.35
76239;SHT30;65043;48.392;-4.472;2023-02-18T08:55:47;12.93;78.24
76239;SHT30;65043;48.392;-4.472;2023-02-18T08:58:13;12.89;77.94
76239;SHT30;65043;48.392;-4.472;2023-02-18T09:00:40;12.92;78.34
76239;SHT30;65043;48.392;-4.472;2023-02-18T09:03:06;12.93;78.26
76239;SHT30;65043;48.392;-4.472;2023-02-18T09:05:32;12.93;78.23
76239;SHT30;65043;48.392;-4.472;2023-02-18T09:07:58;12.96;78.10
76239;SHT30;65043;48.392;-4.472;2023-02-18T09:10:23;12.99;78.16
76239;SHT30;65043;48.392;-4.472;2023-02-18T09:12:49;13.05;78.12
76239;SHT30;65043;48.392;-4.472;2023-02-18T09:15:14;13.11;78.15
76239;SHT30;65043;48.392;-4.472;2023-02-18T09:17:40;13.11;77.89
76239;SHT30;65043;48.392;-4.472;2023-02-18T09:20:06;13.12;78.13
76239;SHT30;65043;48.392;-4.472;2023-02-18T09:22:32;13.15;78.05
76239;SHT30;65043;48.392;-4.472;2023-02-18T09:24:58;13.16;77.90
76239;SHT30;65043;48.392;-4.472;2023-02-18T09:27:23;13.16;77.96
76239;SHT30;65043;48.392;-4.472;2023-02-18T09:29:49;13.20;77.86
76239;SHT30;65043;48.392;-4.472;2023-02-18T09:32:15;13.19;77.65
76239;SHT30;65043;48.392;-4.472;2023-02-18T09:34:43;13.20;77.88
76239;SHT30;65043;48.392;-4.472;2023-02-18T09:37:09;13.22;77.95
76239;SHT30;65043;48.392;-4.472;2023-02-18T09:39:35;13.22;78.15
76239;SHT30;65043;48.392;-4.472;2023-02-18T09:42:07;13.23;78.39
76239;SHT30;65043;48.392;-4.472;2023-02-18T09:44:42;13.24;78.08
76239;SHT30;65043;48.392;-4.472;2023-02-18T09:49:46;13.26;77.92
76239;SHT30;65043;48.392;-4.472;2023-02-18T09:52:19;13.30;77.40
76239;SHT30;65043;48.392;-4.472;2023-02-18T09:54:45;13.35;77.29
76239;SHT30;65043;48.392;-4.472;2023-02-18T09:57:50;13.38;77.29
76239;SHT30;65043;48.392;-4.472;2023-02-18T10:00:16;13.40;77.06
76239;SHT30;65043;48.392;-4.472;2023-02-18T10:03:04;13.33;77.35
76239;SHT30;65043;48.392;-4.472;2023-02-18T10:05:32;13.30;77.74
76239;SHT30;65043;48.392;-4.472;2023-02-18T10:08:05;13.26;77.68
76239;SHT30;65043;48.392;-4.472;2023-02-18T10:10:43;13.26;77.67
76239;SHT30;65043;48.392;-4.472;2023-02-18T10:13:23;13.24;77.71
76239;SHT30;65043;48.392;-4.472;2023-02-18T10:15:51;13.24;77.70
76239;SHT30;65043;48.392;-4.472;2023-02-18T10:18:27;13.24;78.11
76239;SHT30;65043;48.392;-4.472;2023-02-18T10:21:05;13.29;77.80
76239;SHT30;65043;48.392;-4.472;2023-02-18T10:23:34;13.32;77.72
76239;SHT30;65043;48.392;-4.472;2023-02-18T10:26:04;13.32;77.73
76239;SHT30;65043;48.392;-4.472;2023-02-18T10:28:31;13.32;77.81
76239;SHT30;65043;48.392;-4.472;2023-02-18T10:31:08;13.26;77.88
76239;SHT30;65043;48.392;-4.472;2023-02-18T10:33:48;13.24;78.16
76239;SHT30;65043;48.392;-4.472;2023-02-18T10:36:46;13.27;78.28
76239;SHT30;65043;48.392;-4.472;2023-02-18T10:39:51;13.23;78.30
76239;SHT30;65043;48.392;-4.472;2023-02-18T10:50:43;13.24;78.16
76239;SHT30;65043;48.392;-4.472;2023-02-18T10:53:29;13.30;77.98
76239;SHT30;65043;48.392;-4.472;2023-02-18T10:55:56;13.32;77.75
76239;SHT30;65043;48.392;-4.472;2023-02-18T10:58:41;13.30;77.05
76239;SHT30;65043;48.392;-4.472;2023-02-18T11:01:13;13.33;77.16
76239;SHT30;65043;48.392;-4.472;2023-02-18T11:06:20;13.47;76.49
76239;SHT30;65043;48.392;-4.472;2023-02-18T11:08:47;13.52;76.20
76239;SHT30;65043;48.392;-4.472;2023-02-18T11:11:39;13.52;76.20
76239;SHT30;65043;48.392;-4.472;2023-02-18T11:14:16;13.54;76.21
76239;SHT30;65043;48.392;-4.472;2023-02-18T11:16:51;13.52;76.44
76239;SHT30;65043;48.392;-4.472;2023-02-18T11:19:34;13.50;76.80
76239;SHT30;65043;48.392;-4.472;2023-02-18T11:22:36;13.52;76.85
76239;SHT30;65043;48.392;-4.472;2023-02-18T11:25:21;13.49;77.10
76239;SHT30;65043;48.392;-4.472;2023-02-18T11:27:51;13.46;77.36
76239;SHT30;65043;48.392;-4.472;2023-02-18T11:32:54;13.40;77.87
76239;SHT30;65043;48.392;-4.472;2023-02-18T11:35:27;13.35;78.10
76239;SHT30;65043;48.392;-4.472;2023-02-18T11:37:58;13.33;78.21
76239;SHT30;65043;48.392;-4.472;2023-02-18T11:40:31;13.30;78.37
76239;SHT30;65043;48.392;-4.472;2023-02-18T11:43:11;13.29;78.49
76239;SHT30;65043;48.392;-4.472;2023-02-18T11:45:38;13.30;78.47
76239;SHT30;65043;48.392;-4.472;2023-02-18T11:48:29;13.29;78.21
76239;SHT30;65043;48.392;-4.472;2023-02-18T11:51:00;13.33;78.32
76239;SHT30;65043;48.392;-4.472;2023-02-18T11:53:29;13.36;78.27
76239;SHT30;65043;48.392;-4.472;2023-02-18T11:55:57;13.40;78.07
76239;SHT30;65043;48.392;-4.472;2023-02-18T11:58:24;13.39;78.17
76239;SHT30;65043;48.392;-4.472;2023-02-18T12:00:54;13.39;78.18
76239;SHT30;65043;48.392;-4.472;2023-02-18T12:03:32;13.43;78.24
76239;SHT30;65043;48.392;-4.472;2023-02-18T12:06:21;13.43;78.38
76239;SHT30;65043;48.392;-4.472;2023-02-18T12:08:54;13.42;78.54
76239;SHT30;65043;48.392;-4.472;2023-02-18T12:11:31;13.43;78.23
76239;SHT30;65043;48.392;-4.472;2023-02-18T12:13:58;13.43;78.14
76239;SHT30;65043;48.392;-4.472;2023-02-18T12:30:28;13.38;78.50
76239;SHT30;65043;48.392;-4.472;2023-02-18T12:46:51;13.30;78.53
76239;SHT30;65043;48.392;-4.472;2023-02-18T12:57:47;13.35;78.50
76239;SHT30;65043;48.392;-4.472;2023-02-18T13:14:13;13.39;78.95
76239;SHT30;65043;48.392;-4.472;2023-02-18T13:16:43;13.40;79.32
76239;SHT30;65043;48.392;-4.472;2023-02-18T13:21:50;13.49;79.06
76239;SHT30;65043;48.392;-4.472;2023-02-18T13:24:36;13.49;78.72
76239;SHT30;65043;48.392;-4.472;2023-02-18T13:27:39;13.50;78.92
76239;SHT30;65043;48.392;-4.472;2023-02-18T13:30:24;13.47;78.63
76239;SHT30;65043;48.392;-4.472;2023-02-18T13:35:57;13.42;78.85
76239;SHT30;65043;48.392;-4.472;2023-02-18T13:41:16;13.36;79.04
76239;SHT30;65043;48.392;-4.472;2023-02-18T13:43:41;13.39;79.19
76239;SHT30;65043;48.392;-4.472;2023-02-18T13:46:15;13.39;79.07
76239;SHT30;65043;48.392;-4.472;2023-02-18T13:49:06;13.43;79.26
76239;SHT30;65043;48.392;-4.472;2023-02-18T13:51:44;13.42;79.12
76239;SHT30;65043;48.392;-4.472;2023-02-18T13:57:25;13.39;79.24
76239;SHT30;65043;48.392;-4.472;2023-02-18T13:59:56;13.39;79.44
76239;SHT30;65043;48.392;-4.472;2023-02-18T14:04:57;13.39;79.27
76239;SHT30;65043;48.392;-4.472;2023-02-18T14:08:04;13.38;79.26
76239;SHT30;65043;48.392;-4.472;2023-02-18T14:10:33;13.39;79.36
76239;SHT30;65043;48.392;-4.472;2023-02-18T14:13:17;13.39;79.35
76239;SHT30;65043;48.392;-4.472;2023-02-18T14:33:36;13.43;76.97
76239;SHT30;65043;48.392;-4.472;2023-02-18T14:41:17;13.42;76.98
76239;SHT30;65043;48.392;-4.472;2023-02-18T14:51:57;13.46;77.32
76239;SHT30;65043;48.392;-4.472;2023-02-18T14:54:25;13.46;77.04
76239;SHT30;65043;48.392;-4.472;2023-02-18T14:57:02;13.47;76.67
76239;SHT30;65043;48.392;-4.472;2023-02-18T14:59:33;13.52;76.65
76239;SHT30;65043;48.392;-4.472;2023-02-18T15:01:59;13.52;76.47
76239;SHT30;65043;48.392;-4.472;2023-02-18T15:04:25;13.52;76.43
76239;SHT30;65043;48.392;-4.472;2023-02-18T15:07:02;13.52;76.08
76239;SHT30;65043;48.392;-4.472;2023-02-18T15:09:29;13.52;75.80
76239;SHT30;65043;48.392;-4.472;2023-02-18T15:12:03;13.49;75.59
76239;SHT30;65043;48.392;-4.472;2023-02-18T15:14:33;13.49;75.10
76239;SHT30;65043;48.392;-4.472;2023-02-18T15:17:00;13.46;75.73
76239;SHT30;65043;48.392;-4.472;2023-02-18T15:19:29;13.49;75.80
76239;SHT30;65043;48.392;-4.472;2023-02-18T15:21:58;13.52;75.87
76239;SHT30;65043;48.392;-4.472;2023-02-18T15:24:34;13.52;75.10
76239;SHT30;65043;48.392;-4.472;2023-02-18T15:27:12;13.56;75.56
76239;SHT30;65043;48.392;-4.472;2023-02-18T15:29:38;13.54;75.10
76239;SHT30;65043;48.392;-4.472;2023-02-18T15:32:22;13.56;74.47
76239;SHT30;65043;48.392;-4.472;2023-02-18T15:34:50;13.54;74.41
76239;SHT30;65043;48.392;-4.472;2023-02-18T15:37:16;13.50;74.59
76239;SHT30;65043;48.392;-4.472;2023-02-18T15:39:42;13.46;74.50
76239;SHT30;65043;48.392;-4.472;2023-02-18T15:42:21;13.49;75.48
76239;SHT30;65043;48.392;-4.472;2023-02-18T15:44:54;13.52;75.08
76239;SHT30;65043;48.392;-4.472;2023-02-18T15:47:20;13.49;74.90
76239;SHT30;65043;48.392;-4.472;2023-02-18T15:49:53;13.50;75.26
76239;SHT30;65043;48.392;-4.472;2023-02-18T15:52:28;13.49;74.96
76239;SHT30;65043;48.392;-4.472;2023-02-18T15:54:55;13.50;75.12
76239;SHT30;65043;48.392;-4.472;2023-02-18T15:57:25;13.50;75.63
76239;SHT30;65043;48.392;-4.472;2023-02-18T16:00:03;13.52;75.28
76239;SHT30;65043;48.392;-4.472;2023-02-18T16:02:31;13.47;75.21
76239;SHT30;65043;48.392;-4.472;2023-02-18T16:04:59;13.44;75.49
76239;SHT30;65043;48.392;-4.472;2023-02-18T16:07:31;13.43;75.51
76239;SHT30;65043;48.392;-4.472;2023-02-18T16:12:34;13.42;75.61
76239;SHT30;65043;48.392;-4.472;2023-02-18T16:15:01;13.46;75.96
76239;SHT30;65043;48.392;-4.472;2023-02-18T16:17:28;13.49;76.04
76239;SHT30;65043;48.392;-4.472;2023-02-18T16:19:56;13.52;75.68
76239;SHT30;65043;48.392;-4.472;2023-02-18T16:25:25;13.52;75.95
76239;SHT30;65043;48.392;-4.472;2023-02-18T16:28:06;13.49;75.54
76239;SHT30;65043;48.392;-4.472;2023-02-18T16:30:33;13.47;75.86
76239;SHT30;65043;48.392;-4.472;2023-02-18T16:32:59;13.44;75.86
76239;SHT30;65043;48.392;-4.472;2023-02-18T16:35:28;13.44;76.27
76239;SHT30;65043;48.392;-4.472;2023-02-18T16:37:54;13.47;76.41
76239;SHT30;65043;48.392;-4.472;2023-02-18T16:42:50;13.53;76.09
76239;SHT30;65043;48.392;-4.472;2023-02-18T16:45:15;13.53;76.43
76239;SHT30;65043;48.392;-4.472;2023-02-18T16:47:45;13.50;76.61
76239;SHT30;65043;48.392;-4.472;2023-02-18T16:50:20;13.47;76.73
76239;SHT30;65043;48.392;-4.472;2023-02-18T16:52:46;13.49;76.76
76239;SHT30;65043;48.392;-4.472;2023-02-18T16:55:23;13.40;77.19
76239;SHT30;65043;48.392;-4.472;2023-02-18T16:57:49;13.39;77.30
76239;SHT30;65043;48.392;-4.472;2023-02-18T17:00:16;13.38;77.55
76239;SHT30;65043;48.392;-4.472;2023-02-18T17:02:44;13.35;77.81
76239;SHT30;65043;48.392;-4.472;2023-02-18T17:05:17;13.30;77.84
76239;SHT30;65043;48.392;-4.472;2023-02-18T17:07:42;13.29;77.92
76239;SHT30;65043;48.392;-4.472;2023-02-18T17:10:08;13.30;77.87
76239;SHT30;65043;48.392;-4.472;2023-02-18T17:12:35;13.30;78.08
76239;SHT30;65043;48.392;-4.472;2023-02-18T17:15:26;13.36;78.10
76239;SHT30;65043;48.392;-4.472;2023-02-18T17:17:52;13.38;78.16
76239;SHT30;65043;48.392;-4.472;2023-02-18T17:20:19;13.36;77.89
76239;SHT30;65043;48.392;-4.472;2023-02-18T17:22:45;13.36;78.11
76239;SHT30;65043;48.392;-4.472;2023-02-18T17:25:30;13.32;78.17
76239;SHT30;65043;48.392;-4.472;2023-02-18T17:27:56;13.30;78.86
76239;SHT30;65043;48.392;-4.472;2023-02-18T17:30:22;13.27;78.89
76239;SHT30;65043;48.392;-4.472;2023-02-18T17:32:48;13.29;78.92
76239;SHT30;65043;48.392;-4.472;2023-02-18T17:35:19;13.23;78.72
76239;SHT30;65043;48.392;-4.472;2023-02-18T17:37:45;13.24;78.87
76239;SHT30;65043;48.392;-4.472;2023-02-18T17:40:15;13.26;79.02
76239;SHT30;65043;48.392;-4.472;2023-02-18T17:42:40;13.24;78.87
76239;SHT30;65043;48.392;-4.472;2023-02-18T17:45:31;13.24;78.98
76239;SHT30;65043;48.392;-4.472;2023-02-18T17:47:59;13.24;78.85
76239;SHT30;65043;48.392;-4.472;2023-02-18T17:50:26;13.19;78.87
76239;SHT30;65043;48.392;-4.472;2023-02-18T17:52:52;13.20;79.16
76239;SHT30;65043;48.392;-4.472;2023-02-18T17:55:19;13.18;79.23
76239;SHT30;65043;48.392;-4.472;2023-02-18T17:57:45;13.16;79.19
76239;SHT30;65043;48.392;-4.472;2023-02-18T18:00:15;13.08;79.69
76239;SHT30;65043;48.392;-4.472;2023-02-18T18:02:41;13.06;79.73
76239;SHT30;65043;48.392;-4.472;2023-02-18T18:07:45;13.06;79.94